Weather at Denver International Airport

Public forecast

Using degrees Fahrenheit for public forecast. Weather courtesy of forecast.io.

Current aviation weather report (METAR) for Denver International Airport

Retrieved 2021/04/20 20:53 UTC (1 hour ago):

KDEN 202053Z 06007KT 10SM FEW090 SCT220 M01/M10 A3021 RMK AO2 SLP261 T10061100 58005

Aviation forecast (TAF) for Denver International Airport

Retrieved 2021/04/20 18:33 UTC (3 hours ago):

TAF KDEN 201730Z 2018/2124 16006KT P6SM FEW080 FM202000 04006KT P6SM FEW050 SCT070 FM210200 05009KT P6SM SCT040 BKN070 FM210600 13006KT P6SM BKN050 FM212200 10011KT 5SM -SHSN SCT020 OVC040